Altamont, South Dakota
Current Conditions -  °F | °C
As of 8:34 PM on Sunday 23 Nov 2014 (Local Time) from KCNB Reporting Station
Overcast Overcast  
Wind Chill: 15°   Ceiling: 2300
Heat Index: 29°   Visibility: 10mi
Dew Point: 22°   Wind: 23mph
Humidity: 76%   Direction: 310°NW
Pressure: 29.54"   Gusts: 33mph
Location:  44.7895°N, 96.7201°W
Report Text: KCNB 240234Z AUTO 31020G29KT 10SM OVC023 M02/M05 A2954 RMK AO2 T10181055
Loading
Personal Weather Stations






























Interactive Weather Map New forecast layout! Learn more

10-Day Weather Forecast

Advertisements
Track Severe Weather on mobile